• Join FlightAware (Why Join?)
  • Login
  • US Flag 
08:31PM EDT


 

Airport Tracker/Info


-or-


 

Live Flight TrackerFlight Track Log ✈ POE468 ✈ 06-Apr-2014 ✈ CYFJ / YTM - CYTZ

Flight Track Log - Related Links

Times and Time Zones

All times are in EDT time to prevent confusion due to time zone crossing. See the POE468 flight status page for this flight to view local times or setup timezone preferences in your user account.

Time Position Orientation Groundspeed Altitude Reporting Facility
EDT Latitude Longitude Course Direction KTS MPH feet Rate Location/Type
06:51PM 46.3000 -74.8000 215° Southwest 190 219 5,500  Level Montreal Center
06:52PM 46.2500 -74.8500 215° Southwest 200 230 8,200 2,820 Climbing Montreal Center
06:53PM 46.2000 -74.9000 215° Southwest 220 253 11,200 2,400 Climbing Montreal Center
06:54PM 46.1500 -74.9500 215° Southwest 250 288 13,000 1,740 Climbing Montreal Center
06:55PM 46.1000 -75.0167 223° Southwest 270 311 14,700 1,680 Climbing Montreal Center
06:56PM 46.0500 -75.1000 229° Southwest 290 334 16,400 1,740 Climbing Montreal Center
06:57PM 45.9833 -75.1500 208° Southwest 290 334 18,200 1,680 Climbing Montreal Center
06:58PM 45.9167 -75.2167 215° Southwest 290 334 19,800 1,680 Climbing Montreal Center
06:59PM 45.8500 -75.2667 208° Southwest 290 334 21,600 1,080 Climbing Montreal Center
07:00PM 45.7833 -75.3500 221° Southwest 300 345 22,000 180 Climbing Montreal Center
07:01PM 45.7000 -75.4167 209° Southwest 330 380 22,000  Level Montreal Center
07:02PM 45.6167 -75.4833 209° Southwest 340 391 22,000  Level Montreal Center
07:03PM 45.5333 -75.5667 215° Southwest 340 391 22,000  Level Montreal Center
07:04PM 45.4333 -75.6333 205° Southwest 340 391 22,000  Level Montreal Center
07:05PM 45.3667 -75.6833 208° Southwest 340 391 22,000  Level Montreal Center
07:06PM 45.2833 -75.7500 209° Southwest 340 391 22,000  Level Montreal Center
07:07PM 45.2000 -75.8333 215° Southwest 340 391 22,000  Level Montreal Center
07:08PM 45.1167 -75.9000 209° Southwest 340 391 22,000  Level Montreal Center
07:09PM 45.0333 -75.9667 209° Southwest 340 391 22,000  Level Montreal Center
07:10PM 44.9500 -76.0333 210° Southwest 340 391 22,000  Level Montreal Center
07:11PM 44.8833 -76.1167 222° Southwest 340 391 22,000  Level Montreal Center
07:12PM 44.8000 -76.1833 210° Southwest 340 391 22,000  Level Montreal Center
07:13PM 44.7167 -76.2500 210° Southwest 330 380 22,000  Level Montreal Center
07:14PM 44.6500 -76.3500 227° Southwest 330 380 22,000  Level Montreal Center
07:14PM 44.6000 -76.4000 215° Southwest 330 380 22,000  Level Toronto Center
07:15PM 44.5333 -76.5000 227° Southwest 330 380 22,000  Level Toronto Center
07:16PM 44.4667 -76.5667 216° Southwest 330 380 22,000  Level Toronto Center
07:17PM 44.4167 -76.6667 235° Southwest 330 380 22,000  Level Toronto Center
07:19PM 44.3500 -76.8167 238° Southwest 330 380 22,000  Level Montreal Center
07:20PM 44.2833 -76.9000 222° Southwest 320 368 22,000  Level Montreal Center
07:21PM 44.2167 -76.9667 216° Southwest 320 368 22,000  Level Montreal Center
07:22PM 44.1500 -77.0833 231° Southwest 320 368 22,000  Level Montreal Center
07:22PM 44.1000 -77.1167 206° Southwest 320 368 22,000  Level Toronto Center
07:23PM 44.0333 -77.2167 227° Southwest 320 368 22,000  Level Toronto Center
07:24PM 43.9667 -77.3000 222° Southwest 320 368 22,000  Level Toronto Center
07:25PM 43.9333 -77.4167 248° West 310 357 22,000  Level Toronto Center
07:26PM 43.9000 -77.5000 241° Southwest 300 345 22,000  Level Toronto Center
07:27PM 43.8833 -77.6167 259° West 300 345 22,000  Level Toronto Center
07:28PM 43.8500 -77.7333 248° West 300 345 22,000 -120 Level Toronto Center
07:29PM 43.8167 -77.8333 245° Southwest 300 345 21,800 -1,140 Descending Toronto Center
07:30PM 43.7833 -77.9500 248° West 310 357 19,800 -1,920 Descending Toronto Center
07:31PM 43.7667 -78.0667 259° West 310 357 18,000 -1,860 Descending Toronto Center
07:32PM 43.7333 -78.1833 248° West 310 357 16,100 -2,040 Descending Toronto Center
07:33PM 43.7000 -78.3000 248° West 320 368 14,000 -1,800 Descending Toronto Center
07:34PM 43.7000 -78.4167 270° West 310 357 12,500 -1,560 Descending Toronto Center
07:35PM 43.7000 -78.5333 270° West 290 334 10,900 -1,380 Descending Toronto Center
07:36PM 43.6833 -78.6167 255° West 280 322 9,800 -1,140 Descending Toronto Center
07:37PM 43.6667 -78.7333 259° West 270 311 8,700 -1,020 Descending Toronto Center
07:38PM 43.6333 -78.8333 245° Southwest 270 311 7,800 -960 Descending Toronto Center
07:39PM 43.6167 -78.9167 255° West 260 299 6,800 -1,020 Descending Toronto Center
07:40PM 43.6000 -79.0167 257° West 250 288 5,800 -1,080 Descending Toronto Center
07:41PM 43.5833 -79.1000 255° West 250 288 4,700 -1,020 Descending Toronto Center
07:42PM 43.5833 -79.2000 270° West 250 288 3,800 -1,020 Descending Toronto Center
07:43PM 43.5667 -79.2833 255° West 250 288 2,700 -1,020 Descending Toronto Center
07:44PM 43.5667 -79.3833 270° West 220 253 1,800 -780 Descending Toronto Center
07:45PM 43.6000 -79.4000 340° North 150 173 1,200 -720 Descending Toronto Center
07:46PM 43.6167 -79.3833 36° Northeast 120 138 400 -840 Descending Toronto Center